createdAt,value
2018-02-05T03:43:45.629Z,102845.69
2018-02-05T03:46:16.102Z,102844.13
2018-02-05T03:48:45.172Z,102849.36
2018-02-05T03:51:15.716Z,102836.91
2018-02-05T03:53:43.898Z,102839.66
2018-02-05T03:56:13.029Z,102845.19
2018-02-05T03:58:40.806Z,102847.66
2018-02-05T04:01:09.785Z,102847.00
2018-02-05T04:03:37.904Z,102859.02
2018-02-05T04:06:05.813Z,102853.03
2018-02-05T04:08:33.979Z,102861.25
2018-02-05T04:11:01.823Z,102857.13
2018-02-05T04:13:29.746Z,102861.76
2018-02-05T04:15:57.569Z,102866.68
2018-02-05T04:18:25.307Z,102867.00
2018-02-05T04:20:53.113Z,102870.08
2018-02-05T04:23:21.245Z,102869.67
2018-02-05T04:25:49.420Z,102867.64
2018-02-05T04:28:17.852Z,102871.03
2018-02-05T04:30:45.629Z,102869.38
2018-02-05T04:33:13.715Z,102869.27
2018-02-05T04:35:41.817Z,102866.81
2018-02-05T04:38:09.675Z,102870.41
2018-02-05T04:40:37.478Z,102871.73
2018-02-05T04:43:05.713Z,102861.77
2018-02-05T04:45:33.427Z,102862.67
2018-02-05T04:48:01.147Z,102865.20
2018-02-05T04:50:28.969Z,102872.52
2018-02-05T04:52:56.736Z,102869.73
2018-02-05T04:55:25.274Z,102873.42
2018-02-05T04:57:52.994Z,102868.16
2018-02-05T05:00:20.763Z,102873.92
2018-02-05T05:02:48.764Z,102874.59
2018-02-05T05:05:16.839Z,102870.29
2018-02-05T05:07:44.888Z,102874.50
2018-02-05T05:10:13.077Z,102879.92
2018-02-05T05:12:40.861Z,102876.44
2018-02-05T05:15:08.893Z,102878.09
2018-02-05T05:17:36.677Z,102868.80
2018-02-05T05:20:04.382Z,102868.41
2018-02-05T05:22:32.504Z,102866.95
2018-02-05T05:25:00.259Z,102870.95
2018-02-05T05:27:28.165Z,102867.76
2018-02-05T05:29:55.908Z,102869.38
2018-02-05T05:32:23.700Z,102870.04
2018-02-05T05:34:51.488Z,102878.62
2018-02-05T05:37:19.189Z,102881.39
2018-02-05T05:39:46.950Z,102879.12
2018-02-05T05:42:14.741Z,102876.84
2018-02-05T05:44:42.503Z,102877.93
2018-02-05T05:47:10.283Z,102883.86
2018-02-05T05:49:38.454Z,102880.87
2018-02-05T05:52:06.193Z,102882.30
2018-02-05T05:54:33.878Z,102879.31
2018-02-05T05:57:01.604Z,102877.61
2018-02-05T05:59:29.323Z,102883.61
2018-02-05T06:01:57.432Z,102880.74
2018-02-05T06:04:25.133Z,102890.41
2018-02-05T06:06:52.827Z,102886.51
2018-02-05T06:09:20.582Z,102881.04
2018-02-05T06:11:48.270Z,102880.55
2018-02-05T06:14:15.972Z,102889.98
2018-02-05T06:16:45.952Z,102888.56
2018-02-05T06:19:13.960Z,102886.16
2018-02-05T06:21:41.635Z,102893.95
2018-02-05T06:24:09.433Z,102892.52
2018-02-05T06:26:37.114Z,102893.31
2018-02-05T06:29:05.070Z,102898.02
2018-02-05T06:31:32.797Z,102898.45
2018-02-05T06:34:00.522Z,102895.25
2018-02-05T06:36:28.671Z,102899.86
2018-02-05T06:38:56.363Z,102892.34
2018-02-05T06:41:24.068Z,102893.48
2018-02-05T06:43:51.747Z,102894.09
2018-02-05T06:46:19.408Z,102899.21
2018-02-05T06:48:47.102Z,102909.27
2018-02-05T06:51:26.989Z,102904.65
2018-02-05T06:54:06.628Z,102899.73
2018-02-05T06:56:34.847Z,102904.75
2018-02-05T06:59:02.534Z,102908.66
2018-02-05T07:01:30.362Z,102909.08
2018-02-05T07:03:58.030Z,102908.39
2018-02-05T07:06:26.073Z,102917.73
2018-02-05T07:08:54.117Z,102915.25
2018-02-05T07:11:21.803Z,102919.36
2018-02-05T07:13:49.458Z,102914.22
2018-02-05T07:16:17.165Z,102925.81
2018-02-05T07:18:44.924Z,102928.02
2018-02-05T07:21:12.585Z,102937.16
2018-02-05T07:23:41.985Z,102939.63
2018-02-05T07:26:10.185Z,102938.63
2018-02-05T07:28:37.911Z,102941.74
2018-02-05T07:31:05.596Z,102937.02
2018-02-05T07:33:33.259Z,102935.71
2018-02-05T07:36:00.947Z,102930.10
2018-02-05T07:38:28.603Z,102924.56
2018-02-05T07:40:56.279Z,102917.36
2018-02-05T07:43:23.965Z,102923.34
2018-02-05T07:45:51.661Z,102917.73
2018-02-05T07:48:19.400Z,102923.50
2018-02-05T07:50:47.104Z,102927.43
2018-02-05T07:53:14.777Z,102924.16
2018-02-05T07:55:42.420Z,102931.28
2018-02-05T07:58:10.041Z,102939.09
2018-02-05T08:00:37.706Z,102926.88
2018-02-05T08:03:05.341Z,102930.09
2018-02-05T08:05:32.984Z,102927.81
2018-02-05T08:08:00.718Z,102927.22
2018-02-05T08:10:29.316Z,102926.10
2018-02-05T08:12:57.352Z,102920.67
2018-02-05T08:15:24.986Z,102922.63
2018-02-05T08:17:52.644Z,102920.17
2018-02-05T08:20:20.579Z,102924.72
2018-02-05T08:22:48.256Z,102918.67
2018-02-05T08:25:15.883Z,102926.20
2018-02-05T08:27:44.034Z,102933.10
2018-02-05T08:30:11.726Z,102925.90
2018-02-05T08:32:39.388Z,102930.12
2018-02-05T08:35:07.418Z,102931.70
2018-02-05T08:37:35.518Z,102926.38
2018-02-05T08:40:03.145Z,102924.83
2018-02-05T08:42:30.937Z,102936.34
2018-02-05T08:44:58.555Z,102931.63
2018-02-05T08:47:26.250Z,102927.34
2018-02-05T08:49:53.907Z,102935.03
2018-02-05T08:52:22.096Z,102931.67
2018-02-05T08:54:49.744Z,102937.95
2018-02-05T08:57:17.428Z,102939.61
2018-02-05T08:59:45.157Z,102940.41
2018-02-05T09:02:12.808Z,102940.72
2018-02-05T09:04:40.506Z,102938.47
2018-02-05T09:07:08.467Z,102937.55
2018-02-05T09:09:36.183Z,102940.84
2018-02-05T09:12:03.864Z,102944.52
2018-02-05T09:14:31.537Z,102940.94
2018-02-05T09:16:59.167Z,102941.25
2018-02-05T09:19:26.842Z,102941.25
2018-02-05T09:21:54.960Z,102932.38
2018-02-05T09:24:22.680Z,102929.73
2018-02-05T09:26:50.384Z,102927.61
2018-02-05T09:29:18.029Z,102920.34
2018-02-05T09:31:46.033Z,102912.80
2018-02-05T09:34:13.982Z,102912.60
2018-02-05T09:36:41.698Z,102912.72
2018-02-05T09:39:09.419Z,102914.36
2018-02-05T09:41:37.046Z,102917.23
2018-02-05T09:44:04.709Z,102917.67
2018-02-05T09:46:32.347Z,102916.03
2018-02-05T09:49:00.077Z,102918.30
2018-02-05T09:51:27.743Z,102917.09
2018-02-05T09:53:55.440Z,102927.19
2018-02-05T09:56:23.100Z,102923.58
2018-02-05T09:58:50.858Z,102922.05
2018-02-05T10:01:18.600Z,102925.95
2018-02-05T10:03:46.338Z,102917.34
2018-02-05T10:06:14.095Z,102921.47
2018-02-05T10:08:42.082Z,102923.41
2018-02-05T10:11:09.827Z,102926.62
2018-02-05T10:13:37.550Z,102922.07
2018-02-05T10:16:05.586Z,102927.05
2018-02-05T10:18:33.278Z,102927.25
2018-02-05T10:21:01.021Z,102919.81
2018-02-05T10:23:28.836Z,102925.60
2018-02-05T10:25:56.571Z,102928.17
2018-02-05T10:28:24.344Z,102920.95
2018-02-05T10:30:52.070Z,102928.98
2018-02-05T10:33:19.837Z,102931.28
2018-02-05T10:35:47.640Z,102926.65
2018-02-05T10:38:15.375Z,102918.73
2018-02-05T10:40:43.121Z,102919.48
2018-02-05T10:43:10.851Z,102919.06
2018-02-05T10:45:38.596Z,102912.05
2018-02-05T10:48:06.384Z,102928.22
2018-02-05T10:50:34.215Z,102925.65
2018-02-05T10:53:02.364Z,102920.09
2018-02-05T10:55:30.128Z,102917.95
2018-02-05T10:57:57.894Z,102917.32
2018-02-05T11:00:25.720Z,102915.16
2018-02-05T11:02:53.597Z,102908.80
2018-02-05T11:05:21.358Z,102910.24
2018-02-05T11:07:49.084Z,102907.64
2018-02-05T11:10:17.352Z,102909.52
2018-02-05T11:12:45.824Z,102905.28
2018-02-05T11:15:14.665Z,102898.91
2018-02-05T11:17:43.556Z,102897.89
2018-02-05T11:20:12.507Z,102894.69
2018-02-05T11:22:41.524Z,102890.98
2018-02-05T11:25:14.423Z,102890.87
2018-02-05T11:27:53.737Z,102892.92
2018-02-05T11:34:04.224Z,102893.87
2018-02-05T11:36:36.859Z,102890.87
2018-02-05T11:39:36.091Z,102887.17
2018-02-05T11:42:03.886Z,102884.80
2018-02-05T11:44:31.611Z,102882.62
2018-02-05T11:46:59.465Z,102878.11
2018-02-05T11:49:29.760Z,102876.14
2018-02-05T11:51:58.810Z,102871.50
2018-02-05T11:54:26.542Z,102875.02
2018-02-05T13:15:19.788Z,102796.02
2018-02-05T13:18:01.149Z,102796.00
2018-02-05T13:22:02.826Z,102786.62
2018-02-05T13:24:35.621Z,102780.62
2018-02-05T13:27:38.480Z,102780.62
2018-02-05T14:05:43.863Z,102744.08
2018-02-05T14:09:18.548Z,102743.98
2018-02-05T14:11:48.767Z,102739.64
2018-02-05T14:17:06.034Z,102738.64
2018-02-05T14:19:36.319Z,102745.72
2018-02-05T14:22:21.464Z,102733.61
2018-02-05T14:30:49.102Z,102728.27
2018-02-05T14:33:39.568Z,102727.22
2018-02-05T14:36:12.484Z,102729.41
2018-02-05T14:38:43.252Z,102723.62
2018-02-05T14:41:11.794Z,102722.59
2018-02-05T14:48:01.436Z,102717.96
2018-02-05T14:50:40.083Z,102710.55
2018-02-05T14:53:14.578Z,102707.02
2018-02-05T14:55:46.510Z,102709.20
2018-02-05T14:58:26.302Z,102703.42
2018-02-05T15:01:06.800Z,102705.50
2018-02-05T15:03:37.098Z,102697.36
2018-02-05T15:23:19.303Z,102688.48
2018-02-05T15:25:54.046Z,102680.14
2018-02-05T15:28:21.925Z,102675.73
2018-02-05T15:30:50.091Z,102669.53
2018-02-05T15:33:17.905Z,102674.29
2018-02-05T15:35:47.899Z,102667.28
2018-02-05T15:38:15.695Z,102664.19
2018-02-05T15:40:45.276Z,102670.06
2018-02-05T15:43:13.244Z,102667.92
2018-02-05T15:45:41.799Z,102663.58
2018-02-05T15:48:09.556Z,102664.91
2018-02-05T15:50:37.366Z,102655.86
2018-02-05T15:53:05.235Z,102655.86
2018-02-05T15:55:33.025Z,102652.34
2018-02-05T15:58:00.780Z,102655.03
2018-02-05T16:00:28.890Z,102652.14
2018-02-05T16:02:56.640Z,102652.27
2018-02-05T16:05:24.354Z,102655.67
2018-02-05T16:07:52.174Z,102660.61
2018-02-05T16:10:20.020Z,102656.70
2018-02-05T16:12:47.936Z,102651.88
2018-02-05T16:15:15.723Z,102649.81
2018-02-05T16:17:43.937Z,102648.69
2018-02-05T16:20:11.820Z,102648.91
2018-02-05T16:25:36.997Z,102641.27
2018-02-05T16:28:10.588Z,102649.30
2018-02-05T16:30:38.362Z,102648.39
2018-02-05T16:33:08.807Z,102644.80
2018-02-05T16:35:37.194Z,102639.87
2018-02-05T16:38:08.074Z,102649.13
2018-02-05T16:40:43.951Z,102646.14
2018-02-05T16:43:18.279Z,102652.42
2018-02-05T16:45:47.175Z,102646.75
2018-02-05T16:48:16.280Z,102642.53
2018-02-05T16:50:45.130Z,102652.45
2018-02-05T16:53:13.223Z,102643.39
2018-02-05T16:55:42.519Z,102642.48
2018-02-05T16:58:14.134Z,102645.66
2018-02-05T17:00:52.975Z,102647.73
2018-02-05T17:03:20.770Z,102644.84
2018-02-05T17:05:49.250Z,102647.41
2018-02-05T17:08:18.591Z,102637.95
2018-02-05T17:10:46.395Z,102642.78
2018-02-05T17:16:00.808Z,102642.99
2018-02-05T17:18:38.500Z,102638.88
2018-02-05T17:21:07.221Z,102642.89
2018-02-05T17:23:35.083Z,102640.65
2018-02-05T17:26:02.942Z,102633.05
2018-02-05T17:28:31.056Z,102635.73
2018-02-05T17:30:59.132Z,102630.16
2018-02-05T17:33:26.955Z,102628.30
2018-02-05T17:35:54.720Z,102628.09
2018-02-05T17:38:22.538Z,102618.34
2018-02-05T17:40:50.558Z,102621.02
2018-02-05T17:43:18.726Z,102622.85
2018-02-05T17:45:49.683Z,102621.41
2018-02-05T17:48:17.491Z,102624.08
2018-02-05T17:50:45.349Z,102613.49
2018-02-05T17:53:13.127Z,102609.06
2018-02-05T17:55:40.887Z,102608.45
2018-02-05T17:58:08.631Z,102608.35
2018-02-05T18:00:36.370Z,102599.09
2018-02-05T18:03:04.147Z,102603.13
2018-02-05T18:05:33.142Z,102595.11
2018-02-05T18:08:03.146Z,102593.16
2018-02-05T18:10:30.918Z,102590.59
2018-02-05T18:12:58.606Z,102590.17
2018-02-05T18:15:26.457Z,102587.81
2018-02-05T18:17:54.199Z,102594.61
2018-02-05T18:20:21.953Z,102592.36
2018-02-05T18:22:49.736Z,102587.83
2018-02-05T18:25:17.476Z,102580.83
2018-02-05T18:27:45.127Z,102582.69
2018-02-05T18:30:12.870Z,102580.23
2018-02-05T18:32:40.810Z,102576.54
2018-02-05T18:35:08.454Z,102575.91
2018-02-05T18:37:36.238Z,102573.34
2018-02-05T18:40:03.953Z,102573.34
2018-02-05T18:42:31.725Z,102567.47
2018-02-05T18:44:59.956Z,102563.78
2018-02-05T18:47:27.636Z,102557.91
2018-02-05T18:49:55.354Z,102562.76
2018-02-05T18:52:23.000Z,102557.80
2018-02-05T18:54:50.593Z,102553.72
2018-02-05T18:57:18.659Z,102555.55
2018-02-05T18:59:46.364Z,102556.47
2018-02-05T19:02:22.791Z,102551.22
2018-02-05T19:04:50.513Z,102549.99
2018-02-05T19:07:18.190Z,102538.39
2018-02-05T19:09:45.894Z,102536.03
2018-02-05T19:12:13.851Z,102547.11
2018-02-05T19:14:41.514Z,102540.03
2018-02-05T19:17:09.510Z,102536.42
2018-02-05T19:19:38.694Z,102530.47
2018-02-05T19:22:06.823Z,102539.81
2018-02-05T19:24:34.429Z,102535.70
2018-02-05T19:27:02.103Z,102533.52
2018-02-05T19:29:29.801Z,102533.61
2018-02-05T19:31:57.475Z,102539.25
2018-02-05T19:34:25.122Z,102533.32
2018-02-05T19:36:52.852Z,102536.36
2018-02-05T19:39:23.833Z,102531.23
2018-02-05T19:41:51.760Z,102527.11
2018-02-05T19:44:19.399Z,102530.80
2018-02-05T19:46:47.034Z,102533.57
2018-02-05T19:49:14.884Z,102544.55
2018-02-05T19:51:42.903Z,102543.52
2018-02-05T19:54:10.636Z,102535.20
2018-02-05T19:56:38.378Z,102530.77
2018-02-05T19:59:06.051Z,102531.30
2018-02-05T20:01:34.534Z,102530.55
2018-02-05T20:04:02.181Z,102526.55
2018-02-05T20:06:29.868Z,102523.88
2018-02-05T20:08:58.231Z,102523.68
2018-02-05T20:11:25.937Z,102528.59
2018-02-05T20:13:53.656Z,102524.27
2018-02-05T20:16:21.788Z,102521.59
2018-02-05T20:18:49.481Z,102517.25
2018-02-05T20:21:19.682Z,102512.97
2018-02-05T20:23:49.914Z,102512.85
2018-02-05T20:26:17.682Z,102509.77
2018-02-05T20:28:46.616Z,102512.44
2018-02-05T20:31:14.602Z,102517.02
2018-02-05T20:33:42.320Z,102513.54
2018-02-05T20:36:10.040Z,102516.61
2018-02-05T20:38:39.224Z,102519.88
2018-02-05T20:41:06.965Z,102512.48
2018-02-05T20:43:34.642Z,102505.61
2018-02-05T20:46:02.359Z,102504.70
2018-02-05T20:48:29.976Z,102508.48
2018-02-05T20:50:57.655Z,102496.37
2018-02-05T20:53:25.448Z,102496.67
2018-02-05T20:55:53.123Z,102495.73
2018-02-05T20:58:20.829Z,102490.60
2018-02-05T21:00:48.449Z,102491.82
2018-02-05T21:03:16.102Z,102494.60
2018-02-05T21:05:43.715Z,102496.34
2018-02-05T21:08:11.396Z,102492.67
2018-02-05T21:10:39.011Z,102493.03
2018-02-05T21:13:06.608Z,102487.59
2018-02-05T21:15:36.663Z,102484.31
2018-02-05T21:18:05.067Z,102483.09
2018-02-05T21:20:32.891Z,102472.00
2018-02-05T21:23:00.549Z,102471.78
2018-02-05T21:25:28.168Z,102475.68
2018-02-05T21:27:56.031Z,102467.57
2018-02-05T21:30:24.600Z,102472.39
2018-02-05T21:32:52.496Z,102468.30
2018-02-05T21:35:20.131Z,102464.50
2018-02-05T21:37:47.752Z,102465.83
2018-02-05T21:40:15.702Z,102463.05
2018-02-05T21:42:43.303Z,102462.52
2018-02-05T21:45:11.147Z,102456.05
2018-02-05T21:47:38.763Z,102458.52
2018-02-05T21:50:06.924Z,102460.55
2018-02-05T21:52:35.969Z,102451.73
2018-02-05T21:55:03.845Z,102454.92
2018-02-05T21:57:31.448Z,102455.41
2018-02-05T21:59:59.054Z,102452.24
2018-02-05T22:02:26.635Z,102445.28
2018-02-05T22:04:54.723Z,102444.75
2018-02-05T22:07:22.597Z,102440.27
2018-02-05T22:09:50.267Z,102437.38
2018-02-05T22:12:17.882Z,102431.41
2018-02-05T22:14:45.483Z,102438.80
2018-02-05T22:17:13.161Z,102438.38
2018-02-05T22:19:41.465Z,102429.46
2018-02-05T22:22:09.346Z,102425.05
2018-02-05T22:24:37.371Z,102424.52
2018-02-05T22:27:05.008Z,102418.06
2018-02-05T22:29:32.859Z,102414.06
2018-02-05T22:32:00.534Z,102406.91
2018-02-05T22:34:28.457Z,102403.51
2018-02-05T22:36:56.207Z,102402.48
2018-02-05T22:39:23.982Z,102402.80
2018-02-05T22:41:51.663Z,102397.03
2018-02-05T22:44:19.351Z,102387.17
2018-02-05T22:46:46.958Z,102386.78
2018-02-05T22:49:14.581Z,102378.36
2018-02-05T22:51:42.232Z,102368.01
2018-02-05T22:54:09.858Z,102360.33
2018-02-05T22:56:37.482Z,102358.15
2018-02-05T22:59:05.090Z,102351.06
2018-02-05T23:01:32.722Z,102349.73
2018-02-05T23:04:04.187Z,102347.28
2018-02-05T23:06:33.787Z,102344.61
2018-02-05T23:09:01.802Z,102343.48
2018-02-05T23:11:29.761Z,102342.58
2018-02-05T23:13:57.648Z,102343.79
2018-02-05T23:16:25.288Z,102334.69
2018-02-05T23:18:52.895Z,102334.25
2018-02-05T23:21:20.543Z,102335.79
2018-02-05T23:23:48.123Z,102330.14
2018-02-05T23:26:15.776Z,102328.49
2018-02-05T23:28:43.704Z,102324.50
2018-02-05T23:31:11.677Z,102319.78
2018-02-05T23:33:39.280Z,102321.22
2018-02-05T23:36:06.923Z,102322.13
2018-02-05T23:38:34.518Z,102312.58
2018-02-05T23:41:02.136Z,102312.69
2018-02-05T23:43:30.179Z,102311.24
2018-02-05T23:45:57.900Z,102302.82
2018-02-05T23:48:25.635Z,102295.14
2018-02-05T23:50:53.342Z,102296.57
2018-02-05T23:53:21.116Z,102287.25
2018-02-05T23:55:48.686Z,102291.77
2018-02-05T23:58:16.336Z,102289.30
